createdAt,value
2017-07-25T00:01:44.403Z,14.40
2017-07-25T00:04:11.881Z,11.10
2017-07-25T00:06:39.342Z,8.13
2017-07-25T00:09:06.839Z,6.80
2017-07-25T00:11:34.302Z,9.40
2017-07-25T00:14:01.764Z,7.60
2017-07-25T00:16:29.240Z,6.73
2017-07-25T00:18:56.711Z,8.37
2017-07-25T00:21:24.179Z,10.73
2017-07-25T00:23:51.647Z,8.10
2017-07-25T00:26:19.123Z,8.77
2017-07-25T00:28:46.621Z,7.77
2017-07-25T00:31:14.104Z,9.17
2017-07-25T00:33:41.579Z,7.87
2017-07-25T00:36:09.043Z,8.80
2017-07-25T00:38:37.279Z,11.43
2017-07-25T00:41:04.751Z,11.30
2017-07-25T00:43:32.213Z,8.87
2017-07-25T00:45:59.704Z,12.90
2017-07-25T00:48:28.004Z,9.30
2017-07-25T00:50:55.467Z,9.43
2017-07-25T00:53:22.928Z,8.97
2017-07-25T00:55:50.387Z,16.13
2017-07-25T00:58:17.866Z,13.70
2017-07-25T01:00:45.352Z,11.70
2017-07-25T01:03:13.583Z,10.83
2017-07-25T01:05:41.090Z,12.30
2017-07-25T01:08:09.331Z,8.63
2017-07-25T01:10:36.833Z,11.30
2017-07-25T01:13:04.313Z,13.03
2017-07-25T01:15:31.772Z,15.60
2017-07-25T01:17:59.387Z,15.30
2017-07-25T01:20:26.884Z,15.83
2017-07-25T01:22:54.363Z,12.33
2017-07-25T01:25:21.835Z,12.80
2017-07-25T01:27:49.364Z,12.23
2017-07-25T01:30:16.826Z,17.03
2017-07-25T01:32:44.304Z,16.93
2017-07-25T01:35:11.778Z,14.03
2017-07-25T01:37:39.244Z,14.30
2017-07-25T01:40:07.479Z,15.17
2017-07-25T01:42:34.955Z,14.43
2017-07-25T01:45:02.418Z,13.20
2017-07-25T01:47:29.878Z,12.93
2017-07-25T01:49:57.349Z,14.60
2017-07-25T01:52:24.804Z,14.03
2017-07-25T01:54:53.034Z,16.30
2017-07-25T01:57:20.504Z,16.67
2017-07-25T01:59:47.972Z,16.63
2017-07-25T02:02:15.455Z,13.03
2017-07-25T02:04:42.987Z,21.70
2017-07-25T02:07:10.447Z,14.60
2017-07-25T02:09:37.931Z,14.53
2017-07-25T02:12:05.391Z,16.43
2017-07-25T02:14:32.855Z,12.13
2017-07-25T02:17:00.337Z,13.73
2017-07-25T02:19:27.789Z,10.87
2017-07-25T02:21:55.266Z,14.23
2017-07-25T02:24:22.739Z,15.93
2017-07-25T02:26:50.217Z,14.20
2017-07-25T02:29:18.468Z,13.20
2017-07-25T02:31:45.931Z,13.90
2017-07-25T02:34:13.426Z,19.73
2017-07-25T02:36:40.905Z,15.63
2017-07-25T02:39:08.386Z,14.87
2017-07-25T02:41:35.869Z,11.83
2017-07-25T02:44:03.389Z,13.50
2017-07-25T02:46:30.850Z,17.30
2017-07-25T02:48:58.330Z,15.00
2017-07-25T02:51:25.807Z,19.63
2017-07-25T02:53:54.051Z,16.67
2017-07-25T02:56:21.524Z,18.17
2017-07-25T02:58:49.002Z,15.60
2017-07-25T03:01:17.247Z,19.53
2017-07-25T03:03:44.734Z,17.43
2017-07-25T03:06:12.224Z,14.83
2017-07-25T03:08:39.690Z,17.73
2017-07-25T03:11:07.169Z,12.03
2017-07-25T03:13:34.643Z,16.63
2017-07-25T03:16:02.103Z,13.23
2017-07-25T03:18:29.570Z,20.60
2017-07-25T03:20:57.819Z,13.10
2017-07-25T03:23:37.049Z,13.60
2017-07-25T03:26:04.524Z,12.90
2017-07-25T03:28:32.756Z,13.60
2017-07-25T03:31:00.231Z,15.40
2017-07-25T03:33:27.686Z,13.57
2017-07-25T03:35:55.164Z,13.93
2017-07-25T03:38:22.625Z,10.50
2017-07-25T03:40:50.854Z,12.20
2017-07-25T03:43:18.337Z,17.07
2017-07-25T03:45:45.822Z,15.10
2017-07-25T03:48:14.060Z,16.03
2017-07-25T03:50:41.544Z,15.57
2017-07-25T03:53:09.014Z,23.20
2017-07-25T03:55:37.251Z,19.80
2017-07-25T03:58:04.719Z,15.37
2017-07-25T04:00:32.195Z,18.53
2017-07-25T04:03:00.427Z,9.97
2017-07-25T04:05:28.831Z,12.90
2017-07-25T04:07:56.507Z,10.60
2017-07-25T04:10:24.733Z,9.43
2017-07-25T04:12:52.219Z,15.03
2017-07-25T04:15:19.688Z,10.77
2017-07-25T04:17:47.138Z,11.83
2017-07-25T04:20:14.629Z,14.73
2017-07-25T04:22:42.124Z,13.10
2017-07-25T04:25:09.590Z,11.43
2017-07-25T04:27:37.081Z,20.63
2017-07-25T04:30:05.502Z,14.53
2017-07-25T04:32:32.968Z,13.27
2017-07-25T04:35:00.457Z,17.17
2017-07-25T04:37:27.924Z,13.53
2017-07-25T04:39:55.387Z,18.20
2017-07-25T04:42:22.866Z,18.40
2017-07-25T04:44:50.339Z,15.00
2017-07-25T04:47:17.812Z,14.10
2017-07-25T04:49:45.307Z,14.60
2017-07-25T04:52:12.762Z,15.33
2017-07-25T04:54:41.000Z,13.17
2017-07-25T04:57:08.478Z,14.97
2017-07-25T04:59:35.943Z,16.20
2017-07-25T05:02:03.413Z,18.30
2017-07-25T05:04:31.671Z,13.47
2017-07-25T05:06:59.144Z,12.83
2017-07-25T05:09:27.367Z,11.60
2017-07-25T05:11:54.832Z,9.50
2017-07-25T05:14:22.378Z,10.83
2017-07-25T05:16:49.840Z,11.50
2017-07-25T05:19:17.336Z,12.37
2017-07-25T05:21:44.800Z,11.83
2017-07-25T05:24:12.264Z,12.10
2017-07-25T05:26:40.495Z,10.27
2017-07-25T05:29:07.972Z,16.43
2017-07-25T05:31:35.431Z,11.97
2017-07-25T05:34:02.904Z,13.90
2017-07-25T05:36:31.131Z,11.73
2017-07-25T05:38:58.628Z,11.83
2017-07-25T05:41:26.132Z,13.53
2017-07-25T05:43:53.594Z,11.30
2017-07-25T05:46:21.050Z,15.00
2017-07-25T05:48:48.517Z,9.60
2017-07-25T05:51:15.982Z,11.27
2017-07-25T05:53:43.486Z,18.33
2017-07-25T05:56:11.723Z,15.57
2017-07-25T05:58:39.186Z,10.83
2017-07-25T06:01:14.617Z,7.60
2017-07-25T06:03:42.086Z,13.57
2017-07-25T06:06:09.545Z,8.10
2017-07-25T06:08:37.039Z,8.13
2017-07-25T06:11:05.259Z,8.93
2017-07-25T06:13:32.724Z,11.03
2017-07-25T06:16:00.193Z,11.77
2017-07-25T06:18:27.651Z,4.63
2017-07-25T06:20:55.118Z,10.97
2017-07-25T06:23:22.580Z,13.57
2017-07-25T06:25:50.034Z,9.13
2017-07-25T06:28:18.355Z,8.33
2017-07-25T06:30:45.810Z,7.10
2017-07-25T06:33:13.271Z,8.33
2017-07-25T06:35:40.741Z,8.63
2017-07-25T06:38:08.216Z,10.40
2017-07-25T06:40:35.678Z,19.20
2017-07-25T06:43:03.129Z,7.33
2017-07-25T06:45:30.652Z,7.67
2017-07-25T06:47:58.111Z,12.13
2017-07-25T06:50:25.570Z,6.73
2017-07-25T06:52:53.038Z,9.53
2017-07-25T06:55:20.511Z,10.10
2017-07-25T06:57:47.972Z,9.97
2017-07-25T07:00:15.436Z,9.73
2017-07-25T07:02:42.896Z,7.43
2017-07-25T07:05:10.355Z,5.50
2017-07-25T07:07:37.811Z,4.00
2017-07-25T07:10:05.272Z,7.20
2017-07-25T07:12:32.738Z,11.40
2017-07-25T07:15:00.972Z,9.53
2017-07-25T07:17:28.427Z,7.93
2017-07-25T07:19:55.902Z,7.40
2017-07-25T07:22:23.365Z,4.20
2017-07-25T07:24:50.830Z,6.73
2017-07-25T07:27:18.281Z,4.43
2017-07-25T07:29:45.747Z,5.50
2017-07-25T07:32:13.976Z,8.40
2017-07-25T07:34:41.437Z,3.90
2017-07-25T07:37:08.899Z,8.57
2017-07-25T07:39:36.360Z,5.80
2017-07-25T07:42:03.823Z,3.37
2017-07-25T07:44:31.296Z,6.60
2017-07-25T07:46:58.778Z,4.90
2017-07-25T07:49:26.247Z,5.03
2017-07-25T07:51:53.722Z,5.23
2017-07-25T07:54:21.184Z,5.30
2017-07-25T07:56:48.651Z,14.70
2017-07-25T07:59:16.110Z,4.53
2017-07-25T08:01:43.589Z,8.13
2017-07-25T08:04:11.031Z,6.20
2017-07-25T08:06:38.511Z,8.43
2017-07-25T08:09:05.955Z,4.80
2017-07-25T08:11:33.415Z,4.77
2017-07-25T08:14:00.891Z,17.70
2017-07-25T08:16:28.338Z,5.60
2017-07-25T08:18:56.591Z,3.07
2017-07-25T08:21:24.076Z,9.63
2017-07-25T08:23:51.530Z,5.07
2017-07-25T08:26:19.808Z,6.70
2017-07-25T08:28:48.047Z,5.33
2017-07-25T08:31:15.508Z,12.80
2017-07-25T08:33:42.961Z,4.63
2017-07-25T08:36:10.442Z,8.37
2017-07-25T08:38:37.890Z,5.63
2017-07-25T08:41:05.350Z,5.17
2017-07-25T08:43:32.811Z,4.20
2017-07-25T08:46:01.031Z,8.60
2017-07-25T08:48:28.490Z,1.77
2017-07-25T08:50:55.977Z,3.67
2017-07-25T08:53:23.438Z,10.10
2017-07-25T08:55:50.903Z,10.63
2017-07-25T08:58:18.525Z,6.30
2017-07-25T09:00:45.979Z,7.00
2017-07-25T09:03:13.436Z,4.50
2017-07-25T09:05:40.899Z,6.33
2017-07-25T09:08:08.395Z,5.03
2017-07-25T09:10:35.855Z,5.73
2017-07-25T09:13:03.328Z,4.43
2017-07-25T09:15:30.780Z,5.70
2017-07-25T09:17:59.007Z,8.23
2017-07-25T09:20:26.470Z,7.63
2017-07-25T09:22:55.208Z,12.33
2017-07-25T09:25:22.672Z,6.93
2017-07-25T09:27:50.167Z,2.67
2017-07-25T09:30:17.636Z,4.97
2017-07-25T09:32:45.086Z,7.23
2017-07-25T09:35:12.567Z,7.13
2017-07-25T09:37:40.024Z,8.10
2017-07-25T09:40:08.287Z,9.73
2017-07-25T09:42:35.749Z,5.40
2017-07-25T09:45:03.214Z,7.07
2017-07-25T09:47:31.441Z,6.97
2017-07-25T09:49:59.047Z,6.73
2017-07-25T09:52:26.527Z,11.10
2017-07-25T09:54:53.987Z,7.90
2017-07-25T09:57:21.481Z,5.70
2017-07-25T09:59:48.972Z,6.53
2017-07-25T10:02:16.473Z,4.80
2017-07-25T10:04:43.948Z,3.67
2017-07-25T10:07:11.417Z,7.37
2017-07-25T10:09:38.864Z,7.90
2017-07-25T10:12:06.356Z,5.27
2017-07-25T10:14:33.806Z,8.60
2017-07-25T10:17:01.268Z,8.00
2017-07-25T10:19:28.737Z,3.47
2017-07-25T10:21:56.199Z,9.70
2017-07-25T10:24:23.652Z,5.33
2017-07-25T10:26:51.123Z,3.40
2017-07-25T10:29:18.616Z,4.07
2017-07-25T10:31:46.105Z,10.80
2017-07-25T10:34:13.563Z,5.93
2017-07-25T10:36:41.035Z,6.33
2017-07-25T10:39:08.491Z,6.50
2017-07-25T10:41:35.972Z,3.70
2017-07-25T10:44:03.417Z,5.03
2017-07-25T10:46:30.880Z,4.20
2017-07-25T10:48:58.343Z,6.60
2017-07-25T10:51:25.914Z,10.97
2017-07-25T10:53:53.357Z,5.00
2017-07-25T10:56:21.954Z,9.60
2017-07-25T10:58:49.415Z,5.00
2017-07-25T11:01:16.935Z,8.60
2017-07-25T11:03:44.400Z,5.20
2017-07-25T11:06:11.858Z,6.53
2017-07-25T11:08:39.315Z,6.27
2017-07-25T11:11:06.783Z,4.87
2017-07-25T11:13:34.238Z,5.37
2017-07-25T11:16:01.723Z,3.43
2017-07-25T11:18:29.171Z,3.00
2017-07-25T11:20:56.665Z,2.43
2017-07-25T11:23:24.129Z,6.80
2017-07-25T11:25:51.634Z,3.93
2017-07-25T11:28:19.112Z,2.03
2017-07-25T11:30:46.606Z,3.93
2017-07-25T11:33:14.118Z,3.50
2017-07-25T11:35:41.726Z,5.13
2017-07-25T11:38:10.038Z,2.53
2017-07-25T11:40:37.549Z,3.50
2017-07-25T11:43:05.039Z,2.23
2017-07-25T11:45:32.487Z,3.13
2017-07-25T11:48:00.735Z,7.23
2017-07-25T11:50:28.202Z,4.20
2017-07-25T11:52:55.680Z,2.20
2017-07-25T11:55:23.143Z,3.57
2017-07-25T11:57:50.637Z,2.40
2017-07-25T12:00:18.162Z,4.83
2017-07-25T12:02:45.688Z,3.93
2017-07-25T12:05:14.048Z,4.13
2017-07-25T12:07:41.503Z,4.60
2017-07-25T12:10:09.020Z,5.23
2017-07-25T12:12:36.515Z,4.07
2017-07-25T12:15:03.974Z,10.03
2017-07-25T12:17:31.435Z,2.43
2017-07-25T12:19:58.894Z,1.80
2017-07-25T12:22:26.358Z,2.87
2017-07-25T12:24:53.827Z,3.23
2017-07-25T12:27:21.301Z,4.17
2017-07-25T12:29:48.763Z,2.50
2017-07-25T12:32:16.236Z,1.90
2017-07-25T12:34:43.696Z,5.13
2017-07-25T12:37:11.155Z,2.17
2017-07-25T12:39:38.676Z,5.07
2017-07-25T12:42:06.171Z,8.80
2017-07-25T12:44:33.675Z,4.40
2017-07-25T12:47:01.136Z,5.80
2017-07-25T12:49:28.607Z,9.40
2017-07-25T12:51:56.063Z,5.27
2017-07-25T12:54:23.549Z,3.43
2017-07-25T12:56:51.024Z,10.13
2017-07-25T12:59:18.482Z,14.47
2017-07-25T13:01:57.891Z,9.37
2017-07-25T13:04:25.347Z,5.67
2017-07-25T13:06:52.807Z,4.00
2017-07-25T13:09:20.280Z,4.53
2017-07-25T13:11:47.747Z,8.90
2017-07-25T13:14:15.203Z,6.33
2017-07-25T13:16:42.663Z,5.93
2017-07-25T13:19:10.125Z,4.10
2017-07-25T13:21:37.579Z,2.80
2017-07-25T13:24:05.048Z,7.13
2017-07-25T13:26:32.523Z,3.47
2017-07-25T13:29:00.754Z,3.53
2017-07-25T13:31:28.259Z,5.33
2017-07-25T13:33:55.751Z,7.60
2017-07-25T13:36:23.219Z,5.57
2017-07-25T13:38:50.720Z,5.27
2017-07-25T13:41:18.164Z,2.93
2017-07-25T13:43:45.632Z,4.57
2017-07-25T13:46:13.115Z,3.80
2017-07-25T13:48:40.575Z,3.20
2017-07-25T13:51:08.047Z,3.67
2017-07-25T13:53:35.517Z,13.00
2017-07-25T13:56:02.984Z,9.67
2017-07-25T13:58:30.451Z,8.30
2017-07-25T14:00:57.919Z,2.33
2017-07-25T14:03:25.392Z,7.77
2017-07-25T14:05:53.620Z,5.33
2017-07-25T14:08:21.083Z,6.30
2017-07-25T14:10:48.543Z,5.37
2017-07-25T14:13:16.039Z,9.93
2017-07-25T14:15:43.509Z,5.33
2017-07-25T14:18:11.758Z,2.60
2017-07-25T14:20:39.215Z,4.33
2017-07-25T14:23:06.747Z,9.80
2017-07-25T14:25:34.207Z,7.17
2017-07-25T14:28:01.667Z,6.10
2017-07-25T14:30:29.167Z,2.77
2017-07-25T14:32:56.648Z,11.33
2017-07-25T14:35:24.099Z,5.83
2017-07-25T14:37:51.574Z,4.67
2017-07-25T14:40:19.048Z,5.70
2017-07-25T14:42:46.499Z,6.00
2017-07-25T14:45:13.968Z,8.90
2017-07-25T14:47:41.425Z,3.77
2017-07-25T14:50:09.026Z,2.57
2017-07-25T14:52:36.516Z,3.93
2017-07-25T14:55:03.979Z,13.00
2017-07-25T14:57:31.470Z,11.23
2017-07-25T14:59:59.699Z,51.07
2017-07-25T15:02:27.160Z,4.10
2017-07-25T15:04:54.631Z,8.70
2017-07-25T15:07:22.164Z,8.97
2017-07-25T15:09:49.658Z,10.37
2017-07-25T15:12:17.228Z,5.60
2017-07-25T15:14:44.694Z,12.53
2017-07-25T15:17:12.150Z,4.47
2017-07-25T15:19:40.375Z,4.13
2017-07-25T15:22:07.852Z,8.60
2017-07-25T15:24:35.310Z,5.80
2017-07-25T15:27:02.809Z,74.27
2017-07-25T15:29:31.047Z,52.20
2017-07-25T15:31:58.528Z,11.77
2017-07-25T15:34:26.768Z,6.10
2017-07-25T15:36:54.235Z,4.40
2017-07-25T15:39:21.699Z,5.10
2017-07-25T15:41:49.158Z,7.73
2017-07-25T15:44:16.632Z,8.07
2017-07-25T15:46:44.088Z,6.30
2017-07-25T15:49:12.314Z,11.50
2017-07-25T15:51:39.807Z,4.50
2017-07-25T15:54:07.315Z,5.03
2017-07-25T15:56:34.770Z,8.73
2017-07-25T15:59:02.243Z,4.80
2017-07-25T16:01:29.816Z,6.70
2017-07-25T16:03:57.271Z,9.53
2017-07-25T16:06:25.055Z,5.70
2017-07-25T16:08:52.523Z,7.97
2017-07-25T16:11:20.793Z,15.70
2017-07-25T16:13:48.259Z,12.07
2017-07-25T16:16:15.724Z,5.77
2017-07-25T16:18:43.208Z,10.00
2017-07-25T16:21:10.660Z,9.50
2017-07-25T16:23:38.131Z,6.70
2017-07-25T16:26:05.608Z,6.37
2017-07-25T16:28:33.063Z,7.00
2017-07-25T16:31:00.530Z,6.63
2017-07-25T16:33:27.994Z,8.83
2017-07-25T16:35:55.454Z,10.23
2017-07-25T16:38:22.911Z,11.80
2017-07-25T16:40:50.371Z,8.23
2017-07-25T16:43:18.596Z,8.83
2017-07-25T16:45:46.099Z,9.43
2017-07-25T16:48:13.581Z,8.33
2017-07-25T16:50:41.032Z,12.50
2017-07-25T16:53:08.506Z,12.40
2017-07-25T16:55:35.979Z,13.10
2017-07-25T16:58:03.471Z,15.80
2017-07-25T17:00:31.030Z,15.10
2017-07-25T17:02:58.478Z,12.93
2017-07-25T17:05:25.948Z,11.07
2017-07-25T17:07:53.730Z,10.83
2017-07-25T17:10:21.962Z,11.70
2017-07-25T17:12:49.427Z,11.63
2017-07-25T17:15:16.919Z,12.37
2017-07-25T17:17:44.684Z,10.73
2017-07-25T17:20:12.186Z,8.50
2017-07-25T17:22:39.675Z,11.73
2017-07-25T17:25:07.925Z,13.97
2017-07-25T17:27:35.375Z,11.93
2017-07-25T17:30:02.852Z,12.40
2017-07-25T17:32:30.317Z,12.97
2017-07-25T17:34:57.780Z,9.20
2017-07-25T17:37:25.294Z,11.07
2017-07-25T17:39:52.837Z,7.97
2017-07-25T17:42:20.298Z,13.93
2017-07-25T17:44:47.796Z,18.77
2017-07-25T17:47:15.264Z,13.83
2017-07-25T17:49:42.733Z,16.23
2017-07-25T17:52:10.208Z,16.67
2017-07-25T17:54:37.701Z,10.13
2017-07-25T17:57:05.175Z,15.20
2017-07-25T17:59:32.648Z,21.90
2017-07-25T18:02:00.922Z,10.73
2017-07-25T18:04:28.376Z,18.27
2017-07-25T18:06:55.847Z,12.17
2017-07-25T18:09:23.346Z,14.93
2017-07-25T18:11:50.824Z,15.73
2017-07-25T18:14:18.311Z,14.87
2017-07-25T18:16:45.768Z,21.87
2017-07-25T18:19:13.243Z,12.53
2017-07-25T18:21:41.491Z,19.77
2017-07-25T18:24:09.031Z,17.97
2017-07-25T18:26:36.523Z,15.17
2017-07-25T18:29:03.994Z,18.07
2017-07-25T18:31:32.216Z,17.20
2017-07-25T18:33:59.669Z,15.10
2017-07-25T18:36:27.156Z,30.33
2017-07-25T18:38:54.620Z,18.80
2017-07-25T18:41:22.098Z,13.33
2017-07-25T18:43:49.578Z,25.17
2017-07-25T18:46:17.048Z,15.37
2017-07-25T18:48:44.535Z,18.70
2017-07-25T18:51:12.000Z,11.40
2017-07-25T18:53:39.464Z,15.63
2017-07-25T18:56:06.956Z,15.43
2017-07-25T18:58:34.420Z,28.27
2017-07-25T19:01:01.889Z,14.00
2017-07-25T19:03:29.377Z,23.27
2017-07-25T19:05:56.833Z,18.10
2017-07-25T19:08:24.317Z,14.63
2017-07-25T19:10:52.567Z,12.63
2017-07-25T19:13:20.052Z,23.37
2017-07-25T19:15:48.552Z,18.63
2017-07-25T19:18:16.754Z,18.33
2017-07-25T19:20:44.403Z,16.50
2017-07-25T19:23:11.877Z,15.93
2017-07-25T19:25:39.436Z,17.87
2017-07-25T19:28:07.159Z,25.10
2017-07-25T19:30:34.834Z,12.10
2017-07-25T19:33:02.354Z,17.50
2017-07-25T19:35:30.588Z,12.27
2017-07-25T19:37:58.069Z,10.50
2017-07-25T19:40:25.601Z,14.93
2017-07-25T19:45:27.815Z,20.00
2017-07-25T19:47:55.418Z,17.53
2017-07-25T19:50:22.881Z,15.67
2017-07-25T19:52:50.354Z,17.50
2017-07-25T19:55:17.842Z,16.23
2017-07-25T19:57:45.323Z,24.93
2017-07-25T20:00:13.638Z,24.43
2017-07-25T20:02:41.132Z,20.83
2017-07-25T20:05:08.607Z,19.33
2017-07-25T20:07:36.072Z,14.53
2017-07-25T20:10:04.326Z,11.33
2017-07-25T20:12:31.799Z,17.93
2017-07-25T20:15:00.047Z,20.70
2017-07-25T20:17:27.535Z,18.63
2017-07-25T20:19:55.789Z,14.47
2017-07-25T20:22:23.248Z,13.40
2017-07-25T20:24:50.745Z,26.47
2017-07-25T20:27:22.184Z,12.10
2017-07-25T20:29:49.707Z,16.77
2017-07-25T20:32:17.252Z,20.47
2017-07-25T20:34:44.740Z,22.50
2017-07-25T20:37:12.988Z,13.77
2017-07-25T20:39:40.644Z,17.13
2017-07-25T20:42:08.447Z,12.40
2017-07-25T20:44:38.883Z,19.60
2017-07-25T20:47:07.886Z,16.37
2017-07-25T20:49:35.466Z,11.13
2017-07-25T20:52:02.951Z,15.33
2017-07-25T20:54:30.422Z,18.80
2017-07-25T20:56:57.892Z,24.53
2017-07-25T20:59:26.464Z,18.53
2017-07-25T21:01:54.001Z,19.63
2017-07-25T21:04:21.455Z,17.97
2017-07-25T21:06:49.034Z,21.33
2017-07-25T21:09:16.540Z,18.67
2017-07-25T21:11:44.034Z,16.80
2017-07-25T21:14:11.597Z,13.60
2017-07-25T21:16:39.076Z,12.83
2017-07-25T21:19:06.566Z,21.40
2017-07-25T21:21:34.119Z,16.07
2017-07-25T21:24:01.703Z,17.80
2017-07-25T21:26:29.283Z,22.33
2017-07-25T21:28:56.793Z,22.73
2017-07-25T21:31:24.356Z,25.73
2017-07-25T21:33:51.847Z,15.77
2017-07-25T21:36:19.316Z,19.33
2017-07-25T21:38:46.870Z,14.20
2017-07-25T21:41:14.335Z,18.60
2017-07-25T21:43:41.814Z,13.30
2017-07-25T21:46:10.066Z,20.97
2017-07-25T21:48:37.555Z,12.70
2017-07-25T21:51:05.826Z,16.63
2017-07-25T21:53:34.103Z,24.23
2017-07-25T21:56:02.541Z,23.30
2017-07-25T21:58:30.109Z,19.33
2017-07-25T22:00:57.599Z,20.50
2017-07-25T22:03:37.672Z,12.73
2017-07-25T22:06:05.147Z,14.90
2017-07-25T22:08:32.609Z,16.50
2017-07-25T22:11:00.108Z,16.20
2017-07-25T22:13:28.512Z,12.03
2017-07-25T22:15:55.975Z,19.63
2017-07-25T22:18:23.468Z,24.70
2017-07-25T22:20:50.950Z,20.33
2017-07-25T22:23:18.487Z,12.60
2017-07-25T22:25:46.098Z,13.07
2017-07-25T22:28:14.422Z,19.20
2017-07-25T22:30:41.892Z,24.23
2017-07-25T22:33:09.358Z,20.60
2017-07-25T22:35:36.843Z,18.53
2017-07-25T22:38:04.313Z,18.03
2017-07-25T22:40:31.818Z,22.10
2017-07-25T22:42:59.343Z,17.17
2017-07-25T22:45:26.835Z,25.43
2017-07-25T22:47:54.315Z,14.07
2017-07-25T22:50:22.568Z,18.57
2017-07-25T22:52:50.039Z,25.17
2017-07-25T22:55:17.552Z,18.87
2017-07-25T22:57:45.144Z,15.80
2017-07-25T23:00:12.625Z,18.23
2017-07-25T23:02:40.885Z,20.83
2017-07-25T23:05:08.354Z,14.90
2017-07-25T23:07:36.716Z,22.50
2017-07-25T23:10:04.198Z,20.53
2017-07-25T23:12:32.439Z,20.20
2017-07-25T23:14:59.931Z,12.93
2017-07-25T23:17:28.190Z,16.30
2017-07-25T23:19:55.666Z,23.33
2017-07-25T23:22:23.967Z,25.60
2017-07-25T23:24:51.442Z,21.77
2017-07-25T23:27:18.991Z,22.27
2017-07-25T23:29:46.476Z,18.10
2017-07-25T23:32:13.982Z,19.97
2017-07-25T23:34:41.474Z,15.80
2017-07-25T23:37:08.960Z,18.93
2017-07-25T23:39:36.488Z,14.50
2017-07-25T23:42:03.969Z,16.57
2017-07-25T23:44:31.451Z,11.83
2017-07-25T23:46:59.708Z,16.13
2017-07-25T23:49:27.249Z,12.87
2017-07-25T23:51:54.735Z,18.00
2017-07-25T23:54:23.035Z,14.03
2017-07-25T23:56:50.529Z,17.60
2017-07-25T23:59:18.068Z,20.97
